WetterOnline ( https://www.wetteronline.de )

Wetter aktuell Butzbach

Aktuelles Wetter: Gießen (195m)

6-stündlich | Neueste Meldungen
Ortszeit Temperatur Wetter
Fr, 03.02. 7:00 6.9° C bedeckt
Fr, 03.02. 1:00 6.6° C leichter Regen
Do, 02.02. 19:00 7.0° C leichter Regen
Do, 02.02. 13:00 7.3° C leichter Regen
Do, 02.02. 7:00 3.9° C leichter Regen
Do, 02.02. 1:00 3.4° C Sprühregen
Mi, 01.02. 19:00 5.2° C leichter Regen
Mi, 01.02. 13:00 5.8° C bedeckt
Ortszeit Temperatur Wetter
Fr, 03.02. 8:30 7.2° C Sprühregen
Fr, 03.02. 8:20 7.2° C Sprühregen
Fr, 03.02. 8:10 7.0° C Sprühregen
Fr, 03.02. 8:00 6.9° C bedeckt
Fr, 03.02. 7:50 6.9° C bedeckt
Fr, 03.02. 7:40 6.9° C bedeckt
Fr, 03.02. 7:30 7.0° C bedeckt
Fr, 03.02. 7:00 6.9° C bedeckt
Fr, 03.02. 6:30 7.0° C bedeckt
Fr, 03.02. 6:00 6.8° C leichter Regen
Fr, 03.02. 5:30 6.8° C leichter Regen
Ortszeit Relative Feuchte Sichtweite
Fr, 03.02. 7:00 88% 50 km
Fr, 03.02. 1:00 90% 7 km
Do, 02.02. 19:00 91% 14 km
Do, 02.02. 13:00 86% 16 km
Do, 02.02. 7:00 98% 12 km
Do, 02.02. 1:00 95% 35 km
Mi, 01.02. 19:00 87% 14 km
Mi, 01.02. 13:00 75% 26 km
Ortszeit Relative Feuchte Sichtweite
Fr, 03.02. 8:30 85% 16 km
Fr, 03.02. 8:20 85% -
Fr, 03.02. 8:10 87% -
Fr, 03.02. 8:00 88% 22 km
Fr, 03.02. 7:50 88% -
Fr, 03.02. 7:40 88% -
Fr, 03.02. 7:30 88% 45 km
Fr, 03.02. 7:00 88% 50 km
Fr, 03.02. 6:30 88% 45 km
Fr, 03.02. 6:00 91% 8 km
Fr, 03.02. 5:30 91% 22 km
Ortszeit Niederschlagsmenge Niederschlagsart
Fr, 03.02. 7:00 0.7 l/m2 in 12 Std. Regen
Fr, 03.02. 1:00 0.5 l/m2 in 6 Std. Regen
Do, 02.02. 19:00 1 l/m2 in 12 Std. Regen
Do, 02.02. 13:00 1 l/m2 in 6 Std. Regen
Do, 02.02. 7:00 7 l/m2 in 12 Std. Regen
Do, 02.02. 1:00 2 l/m2 in 6 Std. Regen
Mi, 01.02. 19:00 0.2 l/m2 in 12 Std. Regen
Mi, 01.02. 13:00 0.1 l/m2 in 6 Std. Regen
Ortszeit Niederschlagsmenge Niederschlagsart
Fr, 03.02. 8:30 <0.05 l/m2 in 30 Min -
Fr, 03.02. 8:20 keine Meldung -
Fr, 03.02. 8:10 keine Meldung -
Fr, 03.02. 8:00 0.0 l/m2 in 1 Std. -
Fr, 03.02. 7:50 keine Meldung -
Fr, 03.02. 7:40 keine Meldung -
Fr, 03.02. 7:30 0.0 l/m2 in 30 Min -
Fr, 03.02. 7:00 <0.05 l/m2 in 1 Std. Regen
Fr, 03.02. 6:30 <0.05 l/m2 in 30 Min Schneeregen
Fr, 03.02. 6:00 0.1 l/m2 in 1 Std. Regen
Fr, 03.02. 5:30 <0.05 l/m2 in 30 Min -
Ortszeit Stärke Spitze Richtung
km/h Bft. km/h Grad Sektor
Fr, 03.02. 7:00 20 4 39 220° SW
Fr, 03.02. 1:00 26 4 43 230° SW
Do, 02.02. 19:00 13 3 46 210° SW
Do, 02.02. 13:00 22 4 41 250° W
Do, 02.02. 7:00 6 1 26 170° S
Do, 02.02. 1:00 9 2 59 10° N
Mi, 01.02. 19:00 31 5 65 230° SW
Mi, 01.02. 13:00 29 5 54 240° SW
Ortszeit Stärke Spitze Richtung
km/h Bft. km/h Grad Sektor
Fr, 03.02. 8:30 22 4 32 230° SW
Fr, 03.02. 8:20 22 4 - 230° SW
Fr, 03.02. 8:10 22 4 - 220° SW
Fr, 03.02. 8:00 22 4 30 220° SW
Fr, 03.02. 7:50 22 4 - 220° SW
Fr, 03.02. 7:40 22 4 - 220° SW
Fr, 03.02. 7:30 22 4 30 220° SW
Fr, 03.02. 7:00 20 4 31 220° SW
Fr, 03.02. 6:30 22 4 31 220° SW
Fr, 03.02. 6:00 22 4 32 220° SW
Fr, 03.02. 5:30 19 3 31 230° SW
Ortszeit Untergrenze Bedeckung Gattung
total tief tief mittel hoch
Fr, 03.02. 7:00 720 m 8/8 8/8 - - -
Fr, 03.02. 1:00 690 m 8/8 7/8 - - -
Do, 02.02. 19:00 540 m 7/8 7/8 - - -
Do, 02.02. 13:00 630 m 7/8 7/8 - - -
Do, 02.02. 7:00 540 m 7/8 7/8 - - -
Do, 02.02. 1:00 690 m 7/8 7/8 - - -
Mi, 01.02. 19:00 630 m 7/8 2/8 - - -
Mi, 01.02. 13:00 900 m 8/8 8/8 - - -
Ortszeit Bedeckungsgrad in Achtel und Wolkenuntergrenze
Fr, 03.02. 8:30 7(780m) 8(1110m)
Fr, 03.02. 8:20 7(780m) 8(1110m)
Fr, 03.02. 8:10 8
Fr, 03.02. 8:00 5(780m) 8(1050m)
Fr, 03.02. 7:50 5(780m) 8(1050m)
Fr, 03.02. 7:40 8
Fr, 03.02. 7:30 3(870m) 8(1110m)
Fr, 03.02. 7:00 1(720m) 5(1050m) 8(1320m)
Fr, 03.02. 6:30 4(690m) 7(960m) 8(1170m)
Fr, 03.02. 6:00 6(660m) 7(840m)
Fr, 03.02. 5:30 3(540m) 5(750m) 7(1200m)
Ortszeit Luftdruck NN (hPa) Tendenz (hPa in 3 Std.)
Fr, 03.02. 7:00 1025 - 0,7
Fr, 03.02. 1:00 1026 - 0,2
Do, 02.02. 19:00 1026 + 1,9
Do, 02.02. 13:00 1023 + 1,2
Do, 02.02. 7:00 1021 + 0,1
Do, 02.02. 1:00 1021 + 1,0
Mi, 01.02. 19:00 1019 + 0,6
Mi, 01.02. 13:00 1020 - 0,6
Ortszeit Luftdruck NN (hPa) Tendenz (hPa in 3 Std.)
Fr, 03.02. 8:30 1025 - 0,8
Fr, 03.02. 8:20 1025 keine Meldung
Fr, 03.02. 8:10 1025 keine Meldung
Fr, 03.02. 8:00 1025 - 0,2
Fr, 03.02. 7:50 1025 keine Meldung
Fr, 03.02. 7:40 1025 keine Meldung
Fr, 03.02. 7:30 1025 - 0,5
Fr, 03.02. 7:00 1025 - 0,7
Fr, 03.02. 6:30 1025 - 0,5
Fr, 03.02. 6:00 1025 - 0,5
Fr, 03.02. 5:30 1026 + 0,2
Ortszeit Schneehöhe (cm)
Fr, 03.02. 7:00 0
Fr, 03.02. 1:00 0
Do, 02.02. 19:00 0
Do, 02.02. 13:00 0
Do, 02.02. 7:00 0
Do, 02.02. 1:00 0
Mi, 01.02. 19:00 0
Mi, 01.02. 13:00 0
Ortszeit Schneehöhe (cm)
Fr, 03.02. 8:30 0
Fr, 03.02. 8:20 0
Fr, 03.02. 8:10 0
Fr, 03.02. 8:00 0
Fr, 03.02. 7:50 0
Fr, 03.02. 7:40 0
Fr, 03.02. 7:30 0
Fr, 03.02. 7:00 0
Fr, 03.02. 6:30 0
Fr, 03.02. 6:00 0
Fr, 03.02. 5:30 0
Link zu dieser Seite / Seite empfehlen

Das Wetter in ...